Información del aeropuerto GCFV

Información de pista
Pista 01 Longitud 7874 ft Anchura 148 ft
Elevación 37 ft Umbral 0 ft Rumbo 2
Pista 19 Longitud 7874 ft Anchura 148 ft
Elevación 75 ft Umbral 0 ft Rumbo 182
Frecuencias del aeropuerto
Tipo APP Nombre CANARIAS A Frecuencia 129.3 MHZ
Tipo ATIS Nombre ATIS Frecuencia 118.65 MHZ
Tipo GND Nombre GND Frecuencia 121.7 MHZ
Tipo TWR Nombre TWR Frecuencia 118.5 MHZ
Radioayudas del aeropuerto
Tipo VOR-DME Nombre Fuerteventura Frecuencia 114100 KHZ
Información meteorológica del aeropuerto y NOTAM
ADDS - METARS form results

(0310 UTC 23 January 2022)
Data provider http://aviationweather.gov/metar/data/
 
METAR text: GCFV 230300Z AUTO 00000KT 9999 ////// 14/12 Q1018
Conditions at: GCFV (FUERTEVENTURA AR, ES) observed 0300 UTC 23 January 2022
Temperature: 14.0°C (57°F)
Dewpoint: 12.0°C (54°F) [RH = 88%]
Pressure (altimeter): 30.06 inches Hg (1018.0 mb)
Winds: calm
Visibility: 6 or more miles (10+ km)
Ceiling: unknown
Clouds: missing
Weather: no significant weather observed at this time

METAR text: GCFV 230230Z AUTO 00000KT 9999 ////// 16/13 Q1018
Conditions at: GCFV (FUERTEVENTURA AR, ES) observed 0230 UTC 23 January 2022
Temperature: 16.0°C (61°F)
Dewpoint: 13.0°C (55°F) [RH = 82%]
Pressure (altimeter): 30.06 inches Hg (1018.0 mb)
Winds: calm
Visibility: 6 or more miles (10+ km)
Ceiling: unknown
Clouds: missing
Weather: no significant weather observed at this time

Forecast for: GCFV (FUERTEVENTURA AR, ES)
Text: TAF GCFV 230200Z 2303/2403 30005KT 9999 FEW025 TX23/2314Z TN13/2307Z
Forecast period: 0300 to 1000 UTC 23 January 2022
Forecast type: FROM: standard forecast or significant change
Winds: from the WNW (300 degrees) at 6 MPH (5 knots; 2.6 m/s)
Visibility: 6 or more miles (10+ km)
Ceiling: at least 12,000 feet AGL
Clouds: few clouds at 2500 feet AGL
Weather: no significant weather forecast for this period
Text: BECMG 2310/2312 08010KT
Forecast period: 1000 to 1800 UTC 23 January 2022
Forecast type: BECOMING: Conditions expected to become as follows by 1200 UTC 23 January 2022
Winds: from the E (80 degrees) at 12 MPH (10 knots; 5.1 m/s)
Visibility: 6 or more miles (10+ km)
Ceiling: at least 12,000 feet AGL
Clouds: few clouds at 2500 feet AGL
Weather: no significant weather forecast for this period
Text: BECMG 2318/2320 32004KT
Forecast period: 1800 UTC 23 January 2022 to 0300 UTC 24 January 2022
Forecast type: BECOMING: Conditions expected to become as follows by 2000 UTC 23 January 2022
Winds: from the NW (320 degrees) at 5 MPH (4 knots; 2.1 m/s)
Visibility: 6 or more miles (10+ km)
Ceiling: at least 12,000 feet AGL
Clouds: few clouds at 2500 feet AGL
Weather: no significant weather forecast for this period